Time;durP1;ratioP1;P1;durP2;ratioP2;P2;SDS_P1;SDS_P2;PMS_P1;PMS_P2;Temp;Humidity;BMP_temperature;BMP_pressure;BME280_temperature;BME280_humidity;BME280_pressure;Samples;Min_cycle;Max_cycle;Signal;HPM_P1;HPM_P2
2023/05/02 00:01:22;;;;;;;;;;;;;;;12.73;99.42;100260.84;5091795;28;19954;-56
2023/05/02 00:03:47;;;;;;;;;;;;;;;12.69;99.51;100261.88;5091658;28;20054;-55
2023/05/02 00:06:12;;;;;;;;;;;;;;;12.71;99.14;100256.47;5089699;28;20011;-56
2023/05/02 00:08:37;;;;;;;;;;;;;;;12.70;98.99;100265.41;5091584;28;20299;-55
2023/05/02 00:11:03;;;;;;;;;;;;;;;12.69;99.19;100259.19;5091629;28;19935;-56
2023/05/02 00:13:28;;;;;;;;;;;;;;;12.62;99.09;100268.34;5091669;28;19916;-55
2023/05/02 00:15:53;;;;;;;;;;;;;;;12.59;99.01;100263.13;5090665;28;20006;-55
2023/05/02 00:18:18;;;;;;;;;;;;;;;12.56;98.78;100263.25;5091473;28;19912;-55
2023/05/02 00:20:44;;;;;;;;;;;;;;;12.52;99.77;100264.28;5090451;28;19916;-55
2023/05/02 00:23:11;;;;;;;;;;;;;;;12.52;99.82;100264.28;5091235;28;19912;-55
2023/05/02 00:25:36;;;;;;;;;;;;;;;12.48;100.00;100264.44;5089938;28;19967;-55
2023/05/02 00:28:01;;;;;;;;;;;;;;;12.51;100.00;100265.22;5090972;28;20644;-55
2023/05/02 00:30:26;;;;;;;;;;;;;;;12.50;100.00;100274.16;5089223;28;19919;-55
2023/05/02 00:32:53;;;;;;;;;;;;;;;12.45;100.00;100276.13;5091755;28;20692;-55
2023/05/02 00:35:18;;;;;;;;;;;;;;;12.46;100.00;100272.50;5089270;28;19924;-55
2023/05/02 00:37:43;;;;;;;;;;;;;;;12.47;100.00;100279.56;5090005;28;19958;-55
2023/05/02 00:40:09;;;;;;;;;;;;;;;12.47;100.00;100273.41;5090337;28;19916;-55
2023/05/02 00:42:35;;;;;;;;;;;;;;;12.51;100.00;100273.22;5098677;28;19945;-55
2023/05/02 00:45:00;;;;;;;;;;;;;;;12.51;100.00;100270.56;5090276;28;19924;-55
2023/05/02 00:47:26;;;;;;;;;;;;;;;12.49;100.00;100271.50;5089205;28;19970;-55
2023/05/02 00:49:51;;;;;;;;;;;;;;;12.43;100.00;100267.28;5090756;28;19920;-55
2023/05/02 00:52:17;;;;;;;;;;;;;;;12.42;100.00;100270.88;5089725;28;20379;-55
2023/05/02 00:54:42;;;;;;;;;;;;;;;12.36;100.00;100284.44;5089756;28;19922;-55
2023/05/02 00:57:08;;;;;;;;;;;;;;;12.32;100.00;100272.13;5091249;28;19978;-56
2023/05/02 00:59:36;;;;;;;;;;;;;;;12.21;100.00;100268.97;5090859;28;19938;-55
2023/05/02 01:02:21;;;;;;;;;;;;;;;12.11;100.00;100264.03;5090057;28;19927;-55
2023/05/02 01:04:58;;;;;;;;;;;;;;;11.94;100.00;100273.47;5089183;28;19919;-55
2023/05/02 01:07:38;;;;;;;;;;;;;;;11.78;100.00;100276.69;5090491;28;20617;-55
2023/05/02 01:10:18;;;;;;;;;;;;;;;11.65;100.00;100275.34;5089725;28;19919;-55
2023/05/02 01:12:49;;;;;;;;;;;;;;;11.59;100.00;100275.53;5090350;28;20273;-55
2023/05/02 01:15:16;;;;;;;;;;;;;;;11.57;100.00;100280.91;5089321;28;20291;-55
2023/05/02 01:17:42;;;;;;;;;;;;;;;11.56;100.00;100280.97;5089926;28;19938;-56
2023/05/02 01:20:10;;;;;;;;;;;;;;;11.54;100.00;100290.78;5089568;28;20294;-56
2023/05/02 01:22:39;;;;;;;;;;;;;;;11.57;100.00;100282.69;5090259;28;19916;-56
2023/05/02 01:25:08;;;;;;;;;;;;;;;11.61;100.00;100287.00;5089403;28;19989;-56
2023/05/02 01:27:52;;;;;;;;;;;;;;;11.67;100.00;100276.19;5089199;28;19920;-56
2023/05/02 01:30:19;;;;;;;;;;;;;;;11.70;100.00;100273.41;5090181;28;19916;-56
2023/05/02 01:32:46;;;;;;;;;;;;;;;11.70;100.00;100281.41;5089350;28;20013;-56
2023/05/02 01:35:13;;;;;;;;;;;;;;;11.75;100.00;100283.00;5089560;28;20615;-56
2023/05/02 01:37:40;;;;;;;;;;;;;;;11.78;100.00;100282.91;5089750;28;19943;-56
2023/05/02 01:40:06;;;;;;;;;;;;;;;11.84;100.00;100284.50;5089526;28;20338;-56
2023/05/02 01:42:33;;;;;;;;;;;;;;;11.83;100.00;100282.72;5092177;28;19920;-56
2023/05/02 01:44:59;;;;;;;;;;;;;;;11.85;100.00;100288.91;5089437;28;19950;-56
2023/05/02 01:47:25;;;;;;;;;;;;;;;11.81;100.00;100298.78;5090251;28;20014;-56
2023/05/02 01:49:51;;;;;;;;;;;;;;;11.79;100.00;100299.78;5089202;28;19916;-56
2023/05/02 01:52:20;;;;;;;;;;;;;;;11.74;100.00;100301.72;5091597;28;19920;-56
2023/05/02 01:54:46;;;;;;;;;;;;;;;11.72;100.00;100309.75;5090527;28;19943;-56
2023/05/02 01:57:14;;;;;;;;;;;;;;;11.72;100.00;100306.22;5092348;28;19924;-56
2023/05/02 01:59:39;;;;;;;;;;;;;;;11.68;100.00;100317.88;5089081;28;20272;-56
2023/05/02 02:02:06;;;;;;;;;;;;;;;11.65;100.00;100315.31;5089723;28;19923;-56
2023/05/02 02:04:33;;;;;;;;;;;;;;;11.61;100.00;100324.31;5089840;28;19919;-56
2023/05/02 02:07:05;;;;;;;;;;;;;;;11.60;100.00;100330.53;5091534;28;19963;-56
2023/05/02 02:09:30;;;;;;;;;;;;;;;11.67;100.00;100332.13;5093312;28;19965;-56
2023/05/02 02:12:02;;;;;;;;;;;;;;;11.75;100.00;100330.09;5093593;28;19920;-57
2023/05/02 02:14:32;;;;;;;;;;;;;;;11.71;100.00;100312.47;5093166;28;19927;-56
2023/05/02 02:17:00;;;;;;;;;;;;;;;11.89;100.00;100331.38;5092355;28;19927;-56
2023/05/02 02:19:26;;;;;;;;;;;;;;;11.96;100.00;100337.38;5093011;28;20383;-56
2023/05/02 02:21:52;;;;;;;;;;;;;;;12.00;100.00;100336.38;5091892;28;19916;-56
2023/05/02 02:24:19;;;;;;;;;;;;;;;12.08;100.00;100344.09;5092882;28;19916;-56
2023/05/02 02:26:45;;;;;;;;;;;;;;;12.07;100.00;100339.69;5092503;28;20409;-56
2023/05/02 02:29:10;;;;;;;;;;;;;;;12.01;100.00;100347.91;5092880;28;20027;-56
2023/05/02 02:31:37;;;;;;;;;;;;;;;12.01;100.00;100345.25;5092666;28;19916;-57
2023/05/02 02:34:03;;;;;;;;;;;;;;;12.05;100.00;100345.09;5093680;28;19923;-56
2023/05/02 02:36:32;;;;;;;;;;;;;;;12.03;100.00;100346.94;5092537;28;19920;-57
2023/05/02 02:39:00;;;;;;;;;;;;;;;12.09;100.00;100341.41;5093215;28;20073;-56
2023/05/02 02:41:35;;;;;;;;;;;;;;;12.09;100.00;100340.53;5076574;28;19927;-56
2023/05/02 02:44:19;;;;;;;;;;;;;;;12.07;100.00;100342.38;5092917;28;19922;-56
2023/05/02 02:47:03;;;;;;;;;;;;;;;12.06;100.00;100346.81;5093110;28;19920;-57
2023/05/02 02:49:31;;;;;;;;;;;;;;;12.04;100.00;100345.16;5086431;28;19912;-56
2023/05/02 02:52:14;;;;;;;;;;;;;;;12.04;100.00;100353.16;5088525;28;20027;-56
2023/05/02 02:54:42;;;;;;;;;;;;;;;12.03;100.00;100354.94;5091916;28;19958;-56
2023/05/02 02:57:15;;;;;;;;;;;;;;;12.01;100.00;100359.44;5093020;28;19957;-57
2023/05/02 03:00:02;;;;;;;;;;;;;;;12.01;100.00;100359.44;5091772;28;19920;-56
2023/05/02 03:02:29;;;;;;;;;;;;;;;12.07;100.00;100361.91;5072332;28;19928;-56
2023/05/02 03:04:56;;;;;;;;;;;;;;;12.15;100.00;100366.97;5077194;28;19923;-57
2023/05/02 03:07:21;;;;;;;;;;;;;;;12.21;100.00;100369.47;5092577;28;20006;-56
2023/05/02 03:09:46;;;;;;;;;;;;;;;12.25;100.00;100385.31;5082308;28;20011;-57
2023/05/02 03:12:12;;;;;;;;;;;;;;;12.25;100.00;100385.31;5092931;28;19927;-56
2023/05/02 03:14:38;;;;;;;;;;;;;;;12.25;100.00;100397.75;5091847;28;20669;-56
2023/05/02 03:17:03;;;;;;;;;;;;;;;12.20;100.00;100387.25;5092101;28;19920;-57
2023/05/02 03:19:28;;;;;;;;;;;;;;;12.22;100.00;100400.53;5091562;28;19970;-56
2023/05/02 03:21:54;;;;;;;;;;;;;;;12.22;100.00;100401.41;5092241;28;19947;-56
2023/05/02 03:24:19;;;;;;;;;;;;;;;12.24;100.00;100393.34;5092243;28;19946;-56
2023/05/02 03:26:46;;;;;;;;;;;;;;;12.25;100.00;100401.31;5092289;28;19920;-56
2023/05/02 03:29:11;;;;;;;;;;;;;;;12.28;100.00;100403.88;5091802;28;20372;-57
2023/05/02 03:31:37;;;;;;;;;;;;;;;12.32;100.00;100397.47;5092274;28;20007;-57
2023/05/02 03:34:02;;;;;;;;;;;;;;;12.34;100.00;100392.97;5092233;28;20338;-57
2023/05/02 03:36:27;;;;;;;;;;;;;;;12.38;100.00;100396.41;5091163;28;19920;-57
2023/05/02 03:38:52;;;;;;;;;;;;;;;12.43;100.00;100398.03;5092097;28;19969;-57
2023/05/02 03:41:19;;;;;;;;;;;;;;;12.47;100.00;100407.63;5090794;28;19966;-57
2023/05/02 03:43:45;;;;;;;;;;;;;;;12.48;100.00;100398.72;5086427;28;20033;-57
2023/05/02 03:46:10;;;;;;;;;;;;;;;12.46;100.00;100402.38;5091887;28;20675;-57
2023/05/02 03:48:36;;;;;;;;;;;;;;;12.41;100.00;100397.19;5092024;28;20337;-56
2023/05/02 03:51:02;;;;;;;;;;;;;;;12.33;100.00;100399.25;5092831;28;19916;-57
2023/05/02 03:53:28;;;;;;;;;;;;;;;12.17;100.00;100391.81;5091343;28;19924;-56
2023/05/02 03:55:53;;;;;;;;;;;;;;;12.03;100.00;100397.59;5094427;28;19916;-57
2023/05/02 03:58:19;;;;;;;;;;;;;;;11.97;100.00;100399.56;5094323;28;20429;-56
2023/05/02 04:00:45;;;;;;;;;;;;;;;11.87;100.00;100409.66;5091421;28;20389;-56
2023/05/02 04:03:10;;;;;;;;;;;;;;;11.83;100.00;100408.88;5091992;28;20025;-56
2023/05/02 04:05:35;;;;;;;;;;;;;;;11.81;100.00;100409.88;5090436;28;19970;-56
2023/05/02 04:08:01;;;;;;;;;;;;;;;11.75;100.00;100416.25;5091683;28;19916;-56
2023/05/02 04:10:26;;;;;;;;;;;;;;;11.74;100.00;100419.84;5090744;28;20264;-56
2023/05/02 04:12:52;;;;;;;;;;;;;;;11.66;100.00;100426.31;5091192;28;19920;-56
2023/05/02 04:15:17;;;;;;;;;;;;;;;11.60;100.00;100435.34;5090877;28;20002;-56
2023/05/02 04:17:42;;;;;;;;;;;;;;;11.58;100.00;100446.97;5087381;28;19924;-56
2023/05/02 04:20:08;;;;;;;;;;;;;;;11.49;100.00;100434.78;5088697;28;19912;-56
2023/05/02 04:22:33;;;;;;;;;;;;;;;11.43;100.00;100456.25;5090864;28;19916;-56
2023/05/02 04:24:58;;;;;;;;;;;;;;;11.35;100.00;100462.75;5091385;28;20363;-56
2023/05/02 04:27:24;;;;;;;;;;;;;;;11.25;100.00;100458.59;5089603;28;19924;-56
2023/05/02 04:29:49;;;;;;;;;;;;;;;11.18;100.00;100457.00;5071798;28;19973;-56
2023/05/02 04:32:15;;;;;;;;;;;;;;;11.13;100.00;100462.47;5090227;28;20437;-56
2023/05/02 04:34:40;;;;;;;;;;;;;;;11.10;100.00;100467.91;5089996;28;20695;-56
2023/05/02 04:37:06;;;;;;;;;;;;;;;11.10;100.00;100467.00;5089006;28;19916;-56
2023/05/02 04:39:32;;;;;;;;;;;;;;;11.12;100.00;100465.19;5069028;28;19928;-57
2023/05/02 04:41:57;;;;;;;;;;;;;;;11.14;100.00;100473.97;5081227;28;19916;-56
2023/05/02 04:44:22;;;;;;;;;;;;;;;11.16;100.00;100477.47;5084472;28;19924;-56
2023/05/02 04:46:47;;;;;;;;;;;;;;;11.24;100.00;100467.47;5088106;28;19963;-56
2023/05/02 04:49:13;;;;;;;;;;;;;;;11.32;100.00;100473.47;5089445;28;20340;-56
2023/05/02 04:51:38;;;;;;;;;;;;;;;11.42;100.00;100472.28;5092555;28;19913;-56
2023/05/02 04:54:03;;;;;;;;;;;;;;;11.59;100.00;100484.22;5089682;28;20324;-56
2023/05/02 04:56:29;;;;;;;;;;;;;;;11.68;100.00;100488.41;5090499;28;19961;-56
2023/05/02 04:58:54;;;;;;;;;;;;;;;11.70;100.00;100486.59;5071110;28;19920;-56
2023/05/02 05:01:19;;;;;;;;;;;;;;;11.82;100.00;100499.56;5088909;28;19920;-56
2023/05/02 05:03:45;;;;;;;;;;;;;;;11.93;100.00;100500.97;5088516;28;19970;-56
2023/05/02 05:06:11;;;;;;;;;;;;;;;12.03;100.00;100504.22;5088591;28;19927;-56
2023/05/02 05:08:36;;;;;;;;;;;;;;;12.14;100.00;100502.09;5089477;28;19919;-56
2023/05/02 05:11:03;;;;;;;;;;;;;;;12.35;100.00;100508.56;5089497;28;19920;-56
2023/05/02 05:13:29;;;;;;;;;;;;;;;12.52;100.00;100512.44;5089593;28;20061;-56
2023/05/02 05:15:54;;;;;;;;;;;;;;;12.71;100.00;100513.59;5090500;28;20012;-56
2023/05/02 05:18:20;;;;;;;;;;;;;;;12.90;100.00;100514.69;5089271;28;19927;-56
2023/05/02 05:20:46;;;;;;;;;;;;;;;13.12;100.00;100518.41;5090356;28;19917;-56
2023/05/02 05:23:11;;;;;;;;;;;;;;;13.31;100.00;100528.44;5090267;28;20472;-56
2023/05/02 05:25:36;;;;;;;;;;;;;;;13.44;100.00;100529.75;5089237;28;20283;-56
2023/05/02 05:28:02;;;;;;;;;;;;;;;13.87;100.00;100533.44;5090228;28;19924;-56
2023/05/02 05:30:29;;;;;;;;;;;;;;;14.11;97.77;100539.69;5088975;28;20110;-56
2023/05/02 05:32:55;;;;;;;;;;;;;;;14.09;94.39;100538.84;5089927;28;20383;-57
2023/05/02 05:35:20;;;;;;;;;;;;;;;14.01;91.83;100540.97;5090239;28;19948;-56
2023/05/02 05:37:45;;;;;;;;;;;;;;;14.03;91.46;100544.47;5089372;28;20010;-56
2023/05/02 05:40:11;;;;;;;;;;;;;;;14.19;90.79;100551.84;5090416;28;19916;-56
2023/05/02 05:42:36;;;;;;;;;;;;;;;14.22;89.63;100545.47;5089524;28;19927;-56
2023/05/02 05:45:01;;;;;;;;;;;;;;;14.16;88.36;100561.78;5090034;28;19927;-56
2023/05/02 05:47:26;;;;;;;;;;;;;;;14.22;89.01;100559.72;5080214;28;19927;-56
2023/05/02 05:49:52;;;;;;;;;;;;;;;14.28;88.21;100562.19;5069343;28;19920;-56
2023/05/02 05:52:18;;;;;;;;;;;;;;;14.17;87.81;100564.38;5088218;28;19916;-56
2023/05/02 05:54:43;;;;;;;;;;;;;;;14.12;89.34;100563.69;5086863;28;19920;-56
2023/05/02 05:57:08;;;;;;;;;;;;;;;14.36;88.49;100564.59;5090645;28;19924;-56
2023/05/02 05:59:35;;;;;;;;;;;;;;;14.59;88.98;100572.59;5088105;28;19912;-56
2023/05/02 06:02:00;;;;;;;;;;;;;;;14.76;87.69;100570.06;5090629;28;19923;-56
2023/05/02 06:04:25;;;;;;;;;;;;;;;14.73;85.70;100564.84;5089961;28;19916;-56
2023/05/02 06:06:52;;;;;;;;;;;;;;;14.59;84.23;100563.66;5088881;28;19926;-56
2023/05/02 06:09:18;;;;;;;;;;;;;;;14.69;84.97;100575.75;5091878;28;19916;-57
2023/05/02 06:11:43;;;;;;;;;;;;;;;14.79;84.74;100578.00;5089991;28;20427;-56
2023/05/02 06:14:08;;;;;;;;;;;;;;;14.91;84.74;100579.31;5089712;28;19916;-57
2023/05/02 06:16:33;;;;;;;;;;;;;;;14.91;84.59;100580.16;5085406;28;19920;-56
2023/05/02 06:18:59;;;;;;;;;;;;;;;15.05;85.91;100585.84;5089594;28;19951;-56
2023/05/02 06:21:24;;;;;;;;;;;;;;;15.08;85.19;100593.75;5088936;28;19927;-56
2023/05/02 06:23:49;;;;;;;;;;;;;;;15.26;84.58;100584.06;5089505;28;19920;-57
2023/05/02 06:26:15;;;;;;;;;;;;;;;15.41;83.64;100576.28;5089377;28;19985;-56
2023/05/02 06:28:40;;;;;;;;;;;;;;;15.46;82.01;100574.25;5088842;28;19977;-57
2023/05/02 06:31:06;;;;;;;;;;;;;;;15.54;81.51;100587.31;5080243;28;19995;-57
2023/05/02 06:33:31;;;;;;;;;;;;;;;15.62;82.06;100590.53;5072245;28;20419;-57
2023/05/02 06:35:57;;;;;;;;;;;;;;;15.80;80.28;100590.59;5089014;28;19947;-56
2023/05/02 06:38:23;;;;;;;;;;;;;;;16.03;78.86;100596.75;5076434;28;19958;-56
2023/05/02 06:40:48;;;;;;;;;;;;;;;16.33;78.16;100600.69;5089574;28;19924;-56
2023/05/02 06:43:13;;;;;;;;;;;;;;;16.71;77.08;100597.09;5088314;28;19939;-56
2023/05/02 06:45:39;;;;;;;;;;;;;;;17.11;75.09;100607.63;5083662;28;19966;-56
2023/05/02 06:48:05;;;;;;;;;;;;;;;17.28;72.37;100610.34;5076583;28;19931;-56
2023/05/02 06:50:30;;;;;;;;;;;;;;;17.35;71.00;100621.69;5089473;28;19912;-57
2023/05/02 06:52:55;;;;;;;;;;;;;;;16.94;72.45;100623.72;5091438;28;19920;-56
2023/05/02 06:55:21;;;;;;;;;;;;;;;16.97;73.67;100620.88;5093340;28;19916;-56
2023/05/02 06:57:47;;;;;;;;;;;;;;;16.96;73.39;100621.81;5092286;28;20360;-56
2023/05/02 07:00:13;;;;;;;;;;;;;;;16.81;74.53;100625.25;5095301;28;20280;-56
2023/05/02 07:02:38;;;;;;;;;;;;;;;16.77;75.14;100631.75;5092112;28;19924;-56
2023/05/02 07:05:04;;;;;;;;;;;;;;;16.69;75.95;100631.22;5092664;28;19985;-56
2023/05/02 07:07:29;;;;;;;;;;;;;;;16.63;76.57;100639.56;5074175;28;19927;-57
2023/05/02 07:09:54;;;;;;;;;;;;;;;16.53;77.34;100646.31;5072521;28;20020;-56
2023/05/02 07:12:20;;;;;;;;;;;;;;;16.36;78.26;100652.44;5087957;28;19927;-56
2023/05/02 07:14:45;;;;;;;;;;;;;;;16.23;78.65;100648.56;5092456;28;19912;-56
2023/05/02 07:17:11;;;;;;;;;;;;;;;15.98;78.40;100653.28;5091627;28;19927;-56
2023/05/02 07:19:36;;;;;;;;;;;;;;;15.92;79.54;100647.31;5092863;28;19912;-56
2023/05/02 07:22:02;;;;;;;;;;;;;;;15.90;80.74;100654.59;5092268;28;19920;-56
2023/05/02 07:24:27;;;;;;;;;;;;;;;15.88;81.41;100662.69;5091523;28;19923;-56
2023/05/02 07:26:52;;;;;;;;;;;;;;;15.81;80.39;100651.34;5092432;28;20378;-56
2023/05/02 07:29:17;;;;;;;;;;;;;;;15.78;81.21;100654.16;5092403;28;19912;-56
2023/05/02 07:31:43;;;;;;;;;;;;;;;15.84;80.35;100645.00;5091431;28;19920;-57
2023/05/02 07:34:08;;;;;;;;;;;;;;;15.86;81.29;100647.59;5092124;28;20414;-56
2023/05/02 07:36:33;;;;;;;;;;;;;;;15.87;80.28;100643.97;5091144;28;19916;-57
2023/05/02 07:38:58;;;;;;;;;;;;;;;15.95;80.35;100649.91;5085472;28;19927;-56
2023/05/02 07:41:24;;;;;;;;;;;;;;;16.03;79.99;100645.91;5081369;28;20403;-57
2023/05/02 07:43:49;;;;;;;;;;;;;;;16.21;80.21;100653.13;5086621;28;19916;-56
2023/05/02 07:46:14;;;;;;;;;;;;;;;16.28;79.77;100654.59;5085597;28;20002;-56
2023/05/02 07:48:41;;;;;;;;;;;;;;;16.40;78.76;100648.69;5090707;28;19912;-56
2023/05/02 07:51:07;;;;;;;;;;;;;;;16.44;77.39;100655.63;5089363;28;20013;-57
2023/05/02 07:53:33;;;;;;;;;;;;;;;16.51;77.00;100648.19;5090776;28;20410;-57
2023/05/02 07:55:58;;;;;;;;;;;;;;;16.59;74.90;100651.41;5091682;28;20002;-56
2023/05/02 07:58:23;;;;;;;;;;;;;;;16.63;74.81;100648.50;5090274;28;19920;-57
2023/05/02 08:00:49;;;;;;;;;;;;;;;16.89;74.93;100658.88;5088242;28;20402;-56
2023/05/02 08:03:14;;;;;;;;;;;;;;;17.29;74.05;100657.81;5100613;28;20002;-56
2023/05/02 08:05:40;;;;;;;;;;;;;;;17.62;72.37;100664.22;5092477;28;19999;-56
2023/05/02 08:08:06;;;;;;;;;;;;;;;18.07;72.45;100661.81;5089274;28;19968;-56
2023/05/02 08:10:31;;;;;;;;;;;;;;;18.34;69.60;100657.66;5092028;28;19912;-56
2023/05/02 08:12:56;;;;;;;;;;;;;;;18.56;67.62;100662.78;5090578;28;19947;-56
2023/05/02 08:15:22;;;;;;;;;;;;;;;18.80;65.07;100657.81;5089987;28;19928;-56
2023/05/02 08:17:47;;;;;;;;;;;;;;;19.44;65.59;100667.59;5089678;28;20009;-56
2023/05/02 08:20:12;;;;;;;;;;;;;;;20.10;61.19;100664.53;5090333;28;19924;-55
2023/05/02 08:22:37;;;;;;;;;;;;;;;20.45;57.68;100666.81;5089988;28;20372;-56
2023/05/02 08:25:03;;;;;;;;;;;;;;;20.59;57.80;100669.50;5091268;28;19916;-56
2023/05/02 08:27:28;;;;;;;;;;;;;;;21.28;57.69;100664.13;5087610;28;19924;-56
2023/05/02 08:29:53;;;;;;;;;;;;;;;21.53;55.08;100677.72;5087943;28;19920;-56
2023/05/02 08:32:19;;;;;;;;;;;;;;;21.94;54.10;100666.84;5091102;28;19959;-56
2023/05/02 08:34:44;;;;;;;;;;;;;;;22.25;52.76;100677.28;5082819;28;19916;-56
2023/05/02 08:37:11;;;;;;;;;;;;;;;22.53;54.14;100676.22;5089836;28;19912;-56
2023/05/02 08:39:39;;;;;;;;;;;;;;;22.86;50.61;100680.09;5087789;28;19981;-56
2023/05/02 08:42:05;;;;;;;;;;;;;;;23.11;49.99;100680.03;5074676;28;20327;-56
2023/05/02 08:44:31;;;;;;;;;;;;;;;23.19;51.17;100685.78;5085709;28;20496;-56
2023/05/02 08:46:58;;;;;;;;;;;;;;;23.38;50.74;100686.16;5089237;28;19955;-56
2023/05/02 08:49:24;;;;;;;;;;;;;;;23.96;49.23;100681.75;5087005;28;19955;-56
2023/05/02 08:51:50;;;;;;;;;;;;;;;23.73;48.43;100679.91;5070116;28;19951;-56
2023/05/02 08:54:16;;;;;;;;;;;;;;;23.87;46.83;100683.31;5079155;28;19916;-56
2023/05/02 08:56:44;;;;;;;;;;;;;;;24.09;47.24;100686.16;5090194;28;19923;-56
2023/05/02 08:59:10;;;;;;;;;;;;;;;24.51;47.48;100681.91;5089358;28;20376;-56
2023/05/02 09:01:36;;;;;;;;;;;;;;;24.52;43.75;100689.09;5090623;28;19913;-56
2023/05/02 09:04:02;;;;;;;;;;;;;;;24.60;45.59;100684.78;5089864;28;20376;-56
2023/05/02 09:06:28;;;;;;;;;;;;;;;24.76;44.97;100689.03;5089743;28;19926;-56
2023/05/02 09:08:53;;;;;;;;;;;;;;;24.53;44.09;100682.63;5092418;28;19920;-56
2023/05/02 09:11:20;;;;;;;;;;;;;;;24.61;45.10;100688.38;5089867;28;19916;-56
2023/05/02 09:13:52;;;;;;;;;;;;;;;23.66;46.55;100698.53;5089405;28;20405;-56
2023/05/02 09:16:25;;;;;;;;;;;;;;;23.47;48.29;100691.91;5088335;28;19920;-55
2023/05/02 09:18:57;;;;;;;;;;;;;;;23.58;47.55;100694.66;5089138;28;20007;-55
2023/05/02 09:21:35;;;;;;;;;;;;;;;23.81;45.09;100691.94;5087385;28;19995;-55
2023/05/02 09:24:02;;;;;;;;;;;;;;;23.03;47.86;100698.72;5088555;28;19916;-55
2023/05/02 09:26:31;;;;;;;;;;;;;;;22.61;49.19;100696.41;5088799;28;19920;-55
2023/05/02 09:28:57;;;;;;;;;;;;;;;22.37;51.41;100702.66;5088216;28;19957;-55
2023/05/02 09:31:24;;;;;;;;;;;;;;;22.31;52.28;100706.66;5089085;28;19942;-55
2023/05/02 09:33:50;;;;;;;;;;;;;;;22.88;49.54;100694.41;5089321;28;19927;-55
2023/05/02 09:36:17;;;;;;;;;;;;;;;22.78;49.03;100698.78;5090253;28;19916;-55
2023/05/02 09:38:43;;;;;;;;;;;;;;;22.62;49.11;100700.84;5089987;28;19974;-55
2023/05/02 09:41:08;;;;;;;;;;;;;;;22.37;48.83;100708.09;5089609;28;19922;-55
2023/05/02 09:43:34;;;;;;;;;;;;;;;22.59;50.28;100703.78;5085403;28;19921;-55
2023/05/02 09:46:03;;;;;;;;;;;;;;;23.11;48.63;100706.31;5069968;28;20347;-55
2023/05/02 09:48:29;;;;;;;;;;;;;;;23.56;49.45;100707.50;5080530;28;19924;-55
2023/05/02 09:50:55;;;;;;;;;;;;;;;23.84;47.69;100699.00;5089043;28;19916;-55
2023/05/02 09:53:21;;;;;;;;;;;;;;;24.01;45.82;100698.59;5074577;28;19966;-55
2023/05/02 09:55:47;;;;;;;;;;;;;;;24.47;48.31;100699.47;5088798;28;20278;-55
2023/05/02 09:58:22;;;;;;;;;;;;;;;24.78;46.84;100703.38;5092005;28;19916;-56
2023/05/02 10:00:49;;;;;;;;;;;;;;;24.99;45.38;100694.31;5088271;28;20011;-56
2023/05/02 10:03:15;;;;;;;;;;;;;;;25.23;44.90;100700.50;5091527;28;20007;-56
2023/05/02 10:05:41;;;;;;;;;;;;;;;25.23;43.65;100700.50;5088124;28;20030;-56
2023/05/02 10:08:07;;;;;;;;;;;;;;;24.98;44.39;100698.03;5089753;28;20399;-56
2023/05/02 10:10:34;;;;;;;;;;;;;;;25.14;43.96;100697.69;5090265;28;20011;-56
2023/05/02 10:13:01;;;;;;;;;;;;;;;24.94;43.91;100695.69;5090645;28;19920;-56
2023/05/02 10:15:29;;;;;;;;;;;;;;;25.43;44.66;100691.59;5089246;28;19915;-56
2023/05/02 10:17:56;;;;;;;;;;;;;;;25.63;42.07;100698.94;5069214;28;19916;-56
2023/05/02 10:20:22;;;;;;;;;;;;;;;25.79;45.70;100695.78;5088445;28;19916;-56
2023/05/02 10:22:48;;;;;;;;;;;;;;;25.62;42.31;100697.22;5088026;28;19922;-56
2023/05/02 10:25:13;;;;;;;;;;;;;;;25.54;41.87;100694.28;5087249;28;20474;-55
2023/05/02 10:27:39;;;;;;;;;;;;;;;25.69;42.22;100695.72;5090412;28;19920;-55
2023/05/02 10:30:05;;;;;;;;;;;;;;;25.49;42.37;100699.25;5092091;28;19951;-56
2023/05/02 10:32:35;;;;;;;;;;;;;;;25.56;41.10;100691.41;5075931;28;20007;-55
2023/05/02 10:35:04;;;;;;;;;;;;;;;25.49;42.20;100691.06;5092441;28;19912;-56
2023/05/02 10:37:32;;;;;;;;;;;;;;;25.59;41.88;100685.69;5093146;28;19923;-56
2023/05/02 10:39:59;;;;;;;;;;;;;;;25.65;41.80;100696.94;5092419;28;20379;-56
2023/05/02 10:42:25;;;;;;;;;;;;;;;25.94;40.98;100686.31;5093454;28;19924;-56
2023/05/02 10:44:50;;;;;;;;;;;;;;;26.36;40.30;100695.44;5092511;28;19967;-56
2023/05/02 10:47:22;;;;;;;;;;;;;;;26.60;39.70;100685.97;5092973;28;19958;-56
2023/05/02 10:49:51;;;;;;;;;;;;;;;26.56;42.22;100692.66;5093059;28;20367;-56
2023/05/02 10:52:30;;;;;;;;;;;;;;;27.01;43.05;100682.28;5092112;28;19923;-56
2023/05/02 10:55:18;;;;;;;;;;;;;;;26.93;39.97;100691.19;5092009;28;19912;-56
2023/05/02 10:58:02;;;;;;;;;;;;;;;27.02;41.17;100689.47;5092040;28;20403;-56
2023/05/02 11:00:28;;;;;;;;;;;;;;;26.74;42.35;100690.19;5091516;28;20015;-56
2023/05/02 11:02:53;;;;;;;;;;;;;;;26.27;41.45;100685.31;5092659;28;19928;-56
2023/05/02 11:05:20;;;;;;;;;;;;;;;26.22;39.63;100684.84;5092118;28;19920;-56
2023/05/02 11:07:46;;;;;;;;;;;;;;;26.67;41.27;100686.31;5097873;28;19920;-56
2023/05/02 11:10:17;;;;;;;;;;;;;;;27.16;39.57;100680.91;5113250;28;19953;-56
2023/05/02 11:12:52;;;;;;;;;;;;;;;26.97;37.56;100675.34;5113146;28;19951;-56
2023/05/02 11:15:40;;;;;;;;;;;;;;;27.12;39.43;100682.19;5104115;28;19949;-56
2023/05/02 11:18:06;;;;;;;;;;;;;;;26.08;40.34;100685.19;5084100;28;19958;-56
2023/05/02 11:20:36;;;;;;;;;;;;;;;25.66;42.14;100671.44;5073245;28;19920;-56
2023/05/02 11:23:20;;;;;;;;;;;;;;;25.26;42.15;100680.31;5092223;28;19916;-56
2023/05/02 11:25:59;;;;;;;;;;;;;;;26.28;40.25;100665.19;5092737;28;19939;-56
2023/05/02 11:28:58;;;;;;;;;;;;;;;26.88;37.91;100665.28;5091613;28;19924;-56
2023/05/02 11:31:25;;;;;;;;;;;;;;;27.50;38.96;100668.66;5091757;28;19993;-56
2023/05/02 11:33:57;;;;;;;;;;;;;;;27.14;37.49;100670.13;5091992;28;20408;-56
2023/05/02 11:36:28;;;;;;;;;;;;;;;27.03;38.95;100672.94;5092118;28;19912;-56
2023/05/02 11:38:53;;;;;;;;;;;;;;;26.97;37.68;100668.03;5091375;28;19924;-56
2023/05/02 11:41:19;;;;;;;;;;;;;;;27.34;39.05;100671.06;5092077;28;20376;-56
2023/05/02 11:43:45;;;;;;;;;;;;;;;27.40;37.57;100667.75;5092092;28;19916;-56
2023/05/02 11:46:10;;;;;;;;;;;;;;;27.45;36.79;100668.19;5090840;28;20056;-56
2023/05/02 11:48:35;;;;;;;;;;;;;;;27.68;38.58;100656.00;5092190;28;19916;-55
2023/05/02 11:51:02;;;;;;;;;;;;;;;27.53;37.00;100653.84;5091343;28;19916;-56
2023/05/02 11:53:28;;;;;;;;;;;;;;;27.59;37.21;100661.47;5091917;28;19912;-56
2023/05/02 11:55:54;;;;;;;;;;;;;;;26.87;37.62;100660.84;5091970;28;19920;-56
2023/05/02 11:58:21;;;;;;;;;;;;;;;26.11;38.72;100658.50;5093527;28;19916;-56
2023/05/02 12:00:47;;;;;;;;;;;;;;;25.76;40.78;100656.06;5092212;28;20348;-56
2023/05/02 12:03:20;;;;;;;;;;;;;;;25.38;40.99;100663.00;5090755;28;20002;-56
2023/05/02 12:05:46;;;;;;;;;;;;;;;24.95;43.37;100662.03;5092184;28;19920;-56
2023/05/02 12:08:18;;;;;;;;;;;;;;;24.92;44.34;100655.00;5091552;28;19943;-56
2023/05/02 12:10:44;;;;;;;;;;;;;;;25.26;42.29;100658.50;5090759;28;19916;-56
2023/05/02 12:13:10;;;;;;;;;;;;;;;25.79;40.91;100661.25;5091789;28;19967;-56
2023/05/02 12:15:35;;;;;;;;;;;;;;;26.42;39.80;100662.16;5090886;28;19997;-56
2023/05/02 12:18:01;;;;;;;;;;;;;;;26.85;42.71;100662.84;5091415;28;20005;-56
2023/05/02 12:20:26;;;;;;;;;;;;;;;26.54;40.91;100666.53;5090844;28;20086;-56
2023/05/02 12:22:52;;;;;;;;;;;;;;;25.94;41.61;100667.22;5091328;28;20462;-55
2023/05/02 12:25:17;;;;;;;;;;;;;;;24.89;43.48;100682.47;5090482;28;19930;-56
2023/05/02 12:27:57;;;;;;;;;;;;;;;24.11;44.57;100677.88;5091155;28;19920;-55
2023/05/02 12:30:26;;;;;;;;;;;;;;;23.50;46.46;100686.22;5091482;28;19947;-57
2023/05/02 12:32:55;;;;;;;;;;;;;;;23.08;49.61;100691.13;5091408;28;19916;-57